You are not logged in, Click here to log in
金斯福德·史密斯國際機場(雪梨)SYD / YSSY 新南威爾斯州雪梨馬斯覺
ICAO: YSSY Country: 新南威爾斯州雪梨馬斯覺
Latitude: -33.9399 Longitude: 151.175
Total Arrivals: 28 Total Departures: 26
Latest Arrival: CI055 (RCTP-YSSY)ALAN. LIU Latest Departure: JQ529 (YSSY-YMML)鈺友. 陳
Scenery:
METAR : YSSY 031730Z 30006KT CAVOK 10/05 Q1012 NOSIG

金斯福德·史密斯國際機場(雪梨)SYD

You are accessing this site from IP address 34.200.243.114. Virtual Airline. CMS by phpVMS.Website designed by Zumeweb and edited by Theo Bearman.
There is 0 User(s) Online: | and 12 Guest(s) Online.
All information on this site is for fight simulation purposes only. This site is for flight logging for pilots of Virtual Airline&模擬飛行論壇 FlySim only.